Time;durP1;ratioP1;P1;durP2;ratioP2;P2;SDS_P1;SDS_P2;PMS_P1;PMS_P2;Temp;Humidity;BMP_temperature;BMP_pressure;BME280_temperature;BME280_humidity;BME280_pressure;Samples;Min_cycle;Max_cycle;Signal;HPM_P1;HPM_P2
2024/01/28 00:00:46;;;;;;;9.30;5.97;;;;;;;;;;5039163;28;88519;-63
2024/01/28 00:03:17;;;;;;;10.57;5.83;;;;;;;;;;5040097;28;88877;-65
2024/01/28 00:05:47;;;;;;;9.37;4.73;;;;;;;;;;5040615;28;88848;-65
2024/01/28 00:08:15;;;;;;;4.17;3.67;;;;;;;;;;5040347;27;87587;-65
2024/01/28 00:10:44;;;;;;;8.37;4.63;;;;;;;;;;5039543;28;88880;-65
2024/01/28 00:13:12;;;;;;;8.23;5.00;;;;;;;;;;5039744;28;89191;-65
2024/01/28 00:15:40;;;;;;;11.33;5.23;;;;;;;;;;5040215;28;88610;-65
2024/01/28 00:18:09;;;;;;;9.60;5.37;;;;;;;;;;5040531;27;87932;-63
2024/01/28 00:20:39;;;;;;;9.67;5.70;;;;;;;;;;5051982;27;88727;-63
2024/01/28 00:23:07;;;;;;;7.00;4.03;;;;;;;;;;5039028;28;88724;-64
2024/01/28 00:25:36;;;;;;;7.13;4.53;;;;;;;;;;5039080;27;88507;-63
2024/01/28 00:28:04;;;;;;;7.70;4.57;;;;;;;;;;5039127;27;87662;-63
2024/01/28 00:30:33;;;;;;;6.87;4.33;;;;;;;;;;5039399;27;89603;-64
2024/01/28 00:33:01;;;;;;;6.80;4.03;;;;;;;;;;5038987;28;87846;-63
2024/01/28 00:35:30;;;;;;;6.10;4.10;;;;;;;;;;5039821;27;88954;-63
2024/01/28 00:38:00;;;;;;;6.93;3.37;;;;;;;;;;5040084;27;87724;-63
2024/01/28 00:40:28;;;;;;;6.67;4.27;;;;;;;;;;5039007;27;89539;-63
2024/01/28 00:42:57;;;;;;;5.97;3.73;;;;;;;;;;5039349;27;89262;-64
2024/01/28 00:45:25;;;;;;;5.70;3.83;;;;;;;;;;5038520;27;87680;-64
2024/01/28 00:47:54;;;;;;;7.60;3.30;;;;;;;;;;5038643;27;88053;-65
2024/01/28 00:50:23;;;;;;;4.27;2.90;;;;;;;;;;5039347;27;89688;-65
2024/01/28 00:52:52;;;;;;;5.40;2.87;;;;;;;;;;5038241;27;89573;-64
2024/01/28 00:55:21;;;;;;;4.03;2.87;;;;;;;;;;5056864;27;88588;-64
2024/01/28 00:57:50;;;;;;;8.23;3.03;;;;;;;;;;5060140;27;87602;-64
2024/01/28 01:00:19;;;;;;;4.67;2.60;;;;;;;;;;5059706;27;89794;-65
2024/01/28 01:02:47;;;;;;;4.67;3.10;;;;;;;;;;5060472;27;88077;-65
2024/01/28 01:05:15;;;;;;;4.80;2.83;;;;;;;;;;5062835;27;88904;-64
2024/01/28 01:07:44;;;;;;;4.40;2.93;;;;;;;;;;5062940;27;87476;-64
2024/01/28 01:10:12;;;;;;;3.07;2.50;;;;;;;;;;5052501;27;89625;-64
2024/01/28 01:12:42;;;;;;;5.57;2.97;;;;;;;;;;5040908;27;90031;-64
2024/01/28 01:15:11;;;;;;;4.43;2.67;;;;;;;;;;5041148;27;89744;-64
2024/01/28 01:17:41;;;;;;;1.83;1.40;;;;;;;;;;5060160;27;87308;-64
2024/01/28 01:20:10;;;;;;;4.20;2.20;;;;;;;;;;5061862;27;92327;-64
2024/01/28 01:22:39;;;;;;;4.47;2.60;;;;;;;;;;5062338;27;89171;-65
2024/01/28 01:25:07;;;;;;;2.87;2.27;;;;;;;;;;5062739;27;88835;-64
2024/01/28 01:27:36;;;;;;;4.70;1.90;;;;;;;;;;5061865;27;87662;-63
2024/01/28 01:30:06;;;;;;;2.93;1.87;;;;;;;;;;5061186;27;89773;-64
2024/01/28 01:32:37;;;;;;;4.03;2.67;;;;;;;;;;5060631;27;87976;-64
2024/01/28 01:35:06;;;;;;;2.20;1.90;;;;;;;;;;5061874;27;88618;-64
2024/01/28 01:37:34;;;;;;;4.70;2.37;;;;;;;;;;5062159;27;87877;-64
2024/01/28 01:40:03;;;;;;;2.73;2.10;;;;;;;;;;5062031;27;88519;-65
2024/01/28 01:42:32;;;;;;;2.90;2.37;;;;;;;;;;5061694;27;87622;-65
2024/01/28 01:45:00;;;;;;;4.10;2.13;;;;;;;;;;5060353;27;87869;-64
2024/01/28 01:47:30;;;;;;;2.97;1.47;;;;;;;;;;5062396;27;87584;-64
2024/01/28 01:49:58;;;;;;;3.20;2.00;;;;;;;;;;5062067;27;89511;-64
2024/01/28 01:52:27;;;;;;;3.17;1.60;;;;;;;;;;5061902;27;88182;-65
2024/01/28 01:54:55;;;;;;;3.77;2.17;;;;;;;;;;5062088;27;91893;-65
2024/01/28 01:57:23;;;;;;;2.47;1.70;;;;;;;;;;5061061;27;87599;-64
2024/01/28 01:59:52;;;;;;;1.80;1.70;;;;;;;;;;5061306;27;89172;-65
2024/01/28 02:02:20;;;;;;;1.70;1.57;;;;;;;;;;5060810;27;87884;-65
2024/01/28 02:04:50;;;;;;;3.70;2.00;;;;;;;;;;5061701;27;89764;-65
2024/01/28 02:07:19;;;;;;;1.87;1.30;;;;;;;;;;5061393;27;87600;-65
2024/01/28 02:09:47;;;;;;;2.33;1.70;;;;;;;;;;5061285;27;89570;-65
2024/01/28 02:12:16;;;;;;;2.70;1.90;;;;;;;;;;5061441;27;89249;-64
2024/01/28 02:14:45;;;;;;;2.97;1.87;;;;;;;;;;5061636;27;88768;-64
2024/01/28 02:17:13;;;;;;;4.70;2.20;;;;;;;;;;5045968;27;87459;-64
2024/01/28 02:19:43;;;;;;;2.17;1.53;;;;;;;;;;5041042;27;89350;-64
2024/01/28 02:22:13;;;;;;;1.83;1.67;;;;;;;;;;5040344;28;89071;-64
2024/01/28 02:24:43;;;;;;;1.63;1.53;;;;;;;;;;5040807;27;87808;-64
2024/01/28 02:27:11;;;;;;;2.50;1.70;;;;;;;;;;5040719;27;87867;-64
2024/01/28 02:29:40;;;;;;;1.93;1.60;;;;;;;;;;5041186;27;89720;-64
2024/01/28 02:32:09;;;;;;;4.07;1.53;;;;;;;;;;5041244;27;89121;-64
2024/01/28 02:34:37;;;;;;;2.50;1.37;;;;;;;;;;5041313;27;88001;-64
2024/01/28 02:37:06;;;;;;;4.00;1.93;;;;;;;;;;5041183;27;87763;-64
2024/01/28 02:39:34;;;;;;;1.47;1.37;;;;;;;;;;5041015;27;89573;-64
2024/01/28 02:42:04;;;;;;;2.13;1.60;;;;;;;;;;5040614;27;88648;-65
2024/01/28 02:44:32;;;;;;;2.50;1.57;;;;;;;;;;5040966;28;88915;-65
2024/01/28 02:47:02;;;;;;;0.93;0.87;;;;;;;;;;5040965;27;87146;-64
2024/01/28 02:49:30;;;;;;;1.93;1.20;;;;;;;;;;5040343;27;88504;-64
2024/01/28 02:51:59;;;;;;;2.43;1.57;;;;;;;;;;5040085;27;88882;-64
2024/01/28 02:54:27;;;;;;;3.57;1.67;;;;;;;;;;5056533;27;89721;-64
2024/01/28 02:56:55;;;;;;;2.13;1.43;;;;;;;;;;5059564;27;87527;-64
2024/01/28 02:59:25;;;;;;;1.47;1.00;;;;;;;;;;5060273;27;90178;-64
2024/01/28 03:01:53;;;;;;;1.40;1.30;;;;;;;;;;5057202;27;89180;-64
2024/01/28 03:04:22;;;;;;;1.33;1.13;;;;;;;;;;5059381;27;88762;-64
2024/01/28 03:06:50;;;;;;;1.67;1.30;;;;;;;;;;5065160;27;87445;-64
2024/01/28 03:09:19;;;;;;;2.17;1.63;;;;;;;;;;5069599;27;89598;-65
2024/01/28 03:11:47;;;;;;;2.53;1.90;;;;;;;;;;5069697;27;89126;-64
2024/01/28 03:14:16;;;;;;;1.47;1.27;;;;;;;;;;5068412;27;88778;-64
2024/01/28 03:16:46;;;;;;;3.03;1.90;;;;;;;;;;5067871;27;87955;-64
2024/01/28 03:19:14;;;;;;;5.20;2.40;;;;;;;;;;5070593;27;89607;-64
2024/01/28 03:21:43;;;;;;;4.13;2.03;;;;;;;;;;5068976;27;89125;-64
2024/01/28 03:24:12;;;;;;;3.23;1.77;;;;;;;;;;5068585;27;88851;-64
2024/01/28 03:26:39;;;;;;;4.33;1.93;;;;;;;;;;5065101;27;87774;-63
2024/01/28 03:29:07;;;;;;;2.73;2.03;;;;;;;;;;5069447;27;89548;-64
2024/01/28 03:31:36;;;;;;;5.93;2.57;;;;;;;;;;5068585;27;88215;-64
2024/01/28 03:34:06;;;;;;;5.77;2.30;;;;;;;;;;5069540;27;87680;-64
2024/01/28 03:36:34;;;;;;;3.63;3.00;;;;;;;;;;5071407;27;87545;-64
2024/01/28 03:39:04;;;;;;;7.10;3.07;;;;;;;;;;5069104;27;89774;-64
2024/01/28 03:41:33;;;;;;;8.40;3.30;;;;;;;;;;5067246;27;90102;-64
2024/01/28 03:44:01;;;;;;;4.37;2.63;;;;;;;;;;5070529;27;89865;-64
2024/01/28 03:46:29;;;;;;;7.43;3.23;;;;;;;;;;5071239;27;87629;-64
2024/01/28 03:49:00;;;;;;;5.43;3.63;;;;;;;;;;5065871;27;89769;-65
2024/01/28 03:51:30;;;;;;;10.87;4.70;;;;;;;;;;5069202;27;89572;-64
2024/01/28 03:53:58;;;;;;;6.50;3.53;;;;;;;;;;5065234;27;89143;-64
2024/01/28 03:56:27;;;;;;;9.30;4.73;;;;;;;;;;5072065;27;87664;-64
2024/01/28 03:58:56;;;;;;;10.83;5.60;;;;;;;;;;5072516;27;88100;-64
2024/01/28 04:01:31;;;;;;;7.60;5.10;;;;;;;;;;5073599;27;88951;-64
2024/01/28 04:04:00;;;;;;;7.37;5.23;;;;;;;;;;5070234;27;87765;-64
2024/01/28 04:06:28;;;;;;;7.17;4.20;;;;;;;;;;5072631;27;87919;-64
2024/01/28 04:08:58;;;;;;;10.73;5.37;;;;;;;;;;5073600;27;88501;-63
2024/01/28 04:11:27;;;;;;;10.33;5.53;;;;;;;;;;5072993;27;88391;-64
2024/01/28 04:13:56;;;;;;;8.77;5.77;;;;;;;;;;5071644;27;88725;-64
2024/01/28 04:16:26;;;;;;;11.47;6.50;;;;;;;;;;5069094;27;87490;-63
2024/01/28 04:18:54;;;;;;;11.90;6.17;;;;;;;;;;5073421;27;88168;-64
2024/01/28 04:21:23;;;;;;;10.57;6.60;;;;;;;;;;5071779;27;88048;-64
2024/01/28 04:23:52;;;;;;;12.63;6.47;;;;;;;;;;5071668;27;87816;-64
2024/01/28 04:26:22;;;;;;;12.03;5.97;;;;;;;;;;5069579;27;87642;-65
2024/01/28 04:28:50;;;;;;;11.43;6.83;;;;;;;;;;5071775;27;88572;-64
2024/01/28 04:31:19;;;;;;;10.37;7.97;;;;;;;;;;5067777;27;88848;-64
2024/01/28 04:33:48;;;;;;;12.97;7.13;;;;;;;;;;5070416;27;90029;-64
2024/01/28 04:36:16;;;;;;;8.50;6.80;;;;;;;;;;5074167;27;87432;-64
2024/01/28 04:38:44;;;;;;;12.20;7.67;;;;;;;;;;5072050;27;88630;-64
2024/01/28 04:41:13;;;;;;;12.80;7.47;;;;;;;;;;5068800;27;89087;-64
2024/01/28 04:43:43;;;;;;;16.20;8.60;;;;;;;;;;5069000;27;89107;-64
2024/01/28 04:46:16;;;;;;;13.80;7.47;;;;;;;;;;5072178;27;87527;-64
2024/01/28 04:48:44;;;;;;;13.83;9.27;;;;;;;;;;5070801;27;89701;-64
2024/01/28 04:51:13;;;;;;;12.83;7.23;;;;;;;;;;5070788;27;89038;-65
2024/01/28 04:53:42;;;;;;;17.00;8.73;;;;;;;;;;5068776;27;87750;-64
2024/01/28 04:56:11;;;;;;;12.03;9.13;;;;;;;;;;5068825;27;87923;-64
2024/01/28 04:58:39;;;;;;;17.13;8.60;;;;;;;;;;5065230;27;89601;-64
2024/01/28 05:01:10;;;;;;;12.90;8.37;;;;;;;;;;5072931;27;88038;-64
2024/01/28 05:03:38;;;;;;;15.93;7.67;;;;;;;;;;5068653;27;88876;-64
2024/01/28 05:06:07;;;;;;;13.10;7.80;;;;;;;;;;5071190;27;87613;-64
2024/01/28 05:08:36;;;;;;;16.37;8.60;;;;;;;;;;5070674;27;89659;-63
2024/01/28 05:11:04;;;;;;;13.17;9.00;;;;;;;;;;5071805;27;87999;-63
2024/01/28 05:13:32;;;;;;;13.43;7.00;;;;;;;;;;5072864;27;88915;-62
2024/01/28 05:16:01;;;;;;;12.60;8.67;;;;;;;;;;5068992;27;87520;-63
2024/01/28 05:18:31;;;;;;;14.93;8.87;;;;;;;;;;5070992;27;89279;-63
2024/01/28 05:21:00;;;;;;;12.50;8.87;;;;;;;;;;5067078;27;90089;-63
2024/01/28 05:23:28;;;;;;;16.73;8.50;;;;;;;;;;5068520;27;88893;-63
2024/01/28 05:25:57;;;;;;;14.07;8.60;;;;;;;;;;5070974;27;87578;-63
2024/01/28 05:28:26;;;;;;;17.07;9.83;;;;;;;;;;5072109;27;89673;-64
2024/01/28 05:30:54;;;;;;;13.77;8.43;;;;;;;;;;5070417;27;88040;-63
2024/01/28 05:33:23;;;;;;;14.57;8.00;;;;;;;;;;5062416;27;87735;-63
2024/01/28 05:35:53;;;;;;;17.20;9.87;;;;;;;;;;5061704;27;87507;-64
2024/01/28 05:38:22;;;;;;;13.37;7.33;;;;;;;;;;5062176;27;89733;-64
2024/01/28 05:40:50;;;;;;;17.13;8.53;;;;;;;;;;5061790;27;89135;-64
2024/01/28 05:43:18;;;;;;;14.40;9.63;;;;;;;;;;5061922;27;88774;-64
2024/01/28 05:45:47;;;;;;;19.97;9.33;;;;;;;;;;5061478;27;87790;-63
2024/01/28 05:48:15;;;;;;;13.50;8.30;;;;;;;;;;5062157;27;89669;-64
2024/01/28 05:50:44;;;;;;;15.30;8.00;;;;;;;;;;5061363;27;89158;-63
2024/01/28 05:53:14;;;;;;;13.80;8.30;;;;;;;;;;5061130;27;87753;-63
2024/01/28 05:55:43;;;;;;;17.80;8.23;;;;;;;;;;5061750;27;87538;-63
2024/01/28 05:58:11;;;;;;;11.60;7.67;;;;;;;;;;5061376;27;89726;-63
2024/01/28 06:00:39;;;;;;;11.70;7.73;;;;;;;;;;5061098;27;88755;-63
2024/01/28 06:03:08;;;;;;;16.30;8.37;;;;;;;;;;5061368;27;91352;-63
2024/01/28 06:05:36;;;;;;;11.80;7.63;;;;;;;;;;5061269;27;87608;-63
2024/01/28 06:08:05;;;;;;;16.97;8.37;;;;;;;;;;5061189;27;89776;-63
2024/01/28 06:10:35;;;;;;;9.90;7.17;;;;;;;;;;5060672;27;90004;-63
2024/01/28 06:13:03;;;;;;;11.87;7.47;;;;;;;;;;5061188;27;89740;-63
2024/01/28 06:15:32;;;;;;;14.30;7.00;;;;;;;;;;5061551;27;87516;-63
2024/01/28 06:18:01;;;;;;;12.93;7.63;;;;;;;;;;5060928;27;89716;-63
2024/01/28 06:20:31;;;;;;;9.93;5.93;;;;;;;;;;5060693;27;88071;-64
2024/01/28 06:22:59;;;;;;;10.83;7.37;;;;;;;;;;5061685;27;88850;-64
2024/01/28 06:25:27;;;;;;;15.67;7.87;;;;;;;;;;5055166;27;89925;-64
2024/01/28 06:27:57;;;;;;;9.80;6.53;;;;;;;;;;5041035;28;90051;-64
2024/01/28 06:30:27;;;;;;;15.87;8.17;;;;;;;;;;5040604;28;88182;-64
2024/01/28 06:32:56;;;;;;;10.67;5.90;;;;;;;;;;5040278;28;89043;-64
2024/01/28 06:35:24;;;;;;;10.90;6.60;;;;;;;;;;5040026;28;87917;-64
2024/01/28 06:37:53;;;;;;;11.27;6.37;;;;;;;;;;5040456;28;88516;-64
2024/01/28 06:40:21;;;;;;;11.87;7.23;;;;;;;;;;5040414;28;88867;-64
2024/01/28 06:42:49;;;;;;;13.57;6.67;;;;;;;;;;5040112;28;88851;-64
2024/01/28 06:45:20;;;;;;;11.27;6.83;;;;;;;;;;5040536;28;87567;-64
2024/01/28 06:47:50;;;;;;;9.03;5.70;;;;;;;;;;5040323;28;88552;-64
2024/01/28 06:50:19;;;;;;;13.93;7.30;;;;;;;;;;5041139;27;89267;-64
2024/01/28 06:52:47;;;;;;;10.73;7.13;;;;;;;;;;5040214;28;88833;-64
2024/01/28 06:55:16;;;;;;;9.77;6.27;;;;;;;;;;5040161;28;87483;-64
2024/01/28 06:57:44;;;;;;;11.33;6.03;;;;;;;;;;5039950;28;91366;-64
2024/01/28 07:00:14;;;;;;;8.00;5.17;;;;;;;;;;5040187;28;90213;-64
2024/01/28 07:02:46;;;;;;;8.27;4.83;;;;;;;;;;5040560;28;89637;-64
2024/01/28 07:05:14;;;;;;;10.23;5.67;;;;;;;;;;5041015;28;87460;-64
2024/01/28 07:07:42;;;;;;;7.50;5.03;;;;;;;;;;5040207;28;89692;-64
2024/01/28 07:10:11;;;;;;;14.30;6.33;;;;;;;;;;5040025;28;89078;-64
2024/01/28 07:12:40;;;;;;;6.87;4.50;;;;;;;;;;5040000;28;87817;-65
2024/01/28 07:15:08;;;;;;;6.60;4.60;;;;;;;;;;5040198;28;87465;-65
2024/01/28 07:17:37;;;;;;;7.57;4.40;;;;;;;;;;5039868;28;91172;-64
2024/01/28 07:20:10;;;;;;;8.50;5.33;;;;;;;;;;5040347;28;90506;-64
2024/01/28 07:22:38;;;;;;;8.70;5.13;;;;;;;;;;5040683;28;88837;-64
2024/01/28 07:25:07;;;;;;;7.63;3.63;;;;;;;;;;5052728;27;88002;-63
2024/01/28 07:27:35;;;;;;;5.60;4.47;;;;;;;;;;5060879;27;88593;-63
2024/01/28 07:30:04;;;;;;;9.30;5.17;;;;;;;;;;5061727;27;89170;-64
2024/01/28 07:32:32;;;;;;;6.40;3.93;;;;;;;;;;5063302;27;88929;-64
2024/01/28 07:35:00;;;;;;;10.27;4.30;;;;;;;;;;5063779;27;87362;-64
2024/01/28 07:37:30;;;;;;;6.57;3.80;;;;;;;;;;5064051;27;91134;-63
2024/01/28 07:39:59;;;;;;;5.53;3.60;;;;;;;;;;5064122;27;89194;-64
2024/01/28 07:42:27;;;;;;;6.30;3.90;;;;;;;;;;5064417;27;88896;-63
2024/01/28 07:44:56;;;;;;;6.60;4.13;;;;;;;;;;5064545;27;87633;-62
2024/01/28 07:47:24;;;;;;;5.17;3.63;;;;;;;;;;5063145;27;88521;-62
2024/01/28 07:49:52;;;;;;;6.90;3.77;;;;;;;;;;5071375;27;91865;-63
2024/01/28 07:52:21;;;;;;;5.67;3.80;;;;;;;;;;5069400;27;88875;-63
2024/01/28 07:54:51;;;;;;;7.73;3.57;;;;;;;;;;5057979;27;87633;-63
2024/01/28 07:57:19;;;;;;;6.63;3.50;;;;;;;;;;5062136;27;89674;-63
2024/01/28 07:59:49;;;;;;;4.40;2.83;;;;;;;;;;5071956;27;87880;-62
2024/01/28 08:02:17;;;;;;;4.20;3.77;;;;;;;;;;5073464;27;88895;-63
2024/01/28 08:04:47;;;;;;;3.83;3.03;;;;;;;;;;5073672;27;87681;-63
2024/01/28 08:07:16;;;;;;;4.47;2.40;;;;;;;;;;5070438;27;88092;-63
2024/01/28 08:09:45;;;;;;;4.60;3.63;;;;;;;;;;5072364;27;88275;-62
2024/01/28 08:12:14;;;;;;;5.33;3.10;;;;;;;;;;5065572;27;91140;-62
2024/01/28 08:14:43;;;;;;;4.83;3.33;;;;;;;;;;5073443;27;87936;-64
2024/01/28 08:17:11;;;;;;;6.50;3.00;;;;;;;;;;5070106;27;89441;-64
2024/01/28 08:19:40;;;;;;;7.00;3.87;;;;;;;;;;5073465;27;89087;-63
2024/01/28 08:22:09;;;;;;;6.13;3.50;;;;;;;;;;5071177;27;88541;-63
2024/01/28 08:24:39;;;;;;;7.90;3.43;;;;;;;;;;5068094;27;87603;-63
2024/01/28 08:27:07;;;;;;;7.73;4.97;;;;;;;;;;5067868;27;89790;-63
2024/01/28 08:29:38;;;;;;;6.30;4.13;;;;;;;;;;5069498;27;89091;-62
2024/01/28 08:32:07;;;;;;;5.83;3.93;;;;;;;;;;5068426;27;88770;-64
2024/01/28 08:34:35;;;;;;;9.70;4.43;;;;;;;;;;5068595;27;87920;-64
2024/01/28 08:37:04;;;;;;;8.87;4.87;;;;;;;;;;5068118;27;88755;-63
2024/01/28 08:39:32;;;;;;;8.17;4.57;;;;;;;;;;5064209;27;89944;-64
2024/01/28 08:42:01;;;;;;;9.90;4.77;;;;;;;;;;5064624;27;89918;-64
2024/01/28 08:44:29;;;;;;;9.80;5.50;;;;;;;;;;5064258;27;87615;-64
2024/01/28 08:46:59;;;;;;;14.67;6.80;;;;;;;;;;5062358;27;89629;-63
2024/01/28 08:49:27;;;;;;;9.33;6.83;;;;;;;;;;5060117;27;89073;-64
2024/01/28 08:51:56;;;;;;;11.93;6.20;;;;;;;;;;5068067;27;88882;-63
2024/01/28 08:54:25;;;;;;;11.20;6.77;;;;;;;;;;5060166;27;87660;-63
2024/01/28 08:56:53;;;;;;;12.87;7.73;;;;;;;;;;5060751;27;89770;-63
2024/01/28 08:59:22;;;;;;;14.37;6.23;;;;;;;;;;5060705;27;89413;-63
2024/01/28 09:01:51;;;;;;;15.17;7.30;;;;;;;;;;5061504;27;88888;-64
2024/01/28 09:04:21;;;;;;;12.10;7.90;;;;;;;;;;5061339;27;87839;-63
2024/01/28 09:06:50;;;;;;;14.87;9.33;;;;;;;;;;5061662;27;89307;-63
2024/01/28 09:09:18;;;;;;;15.60;9.03;;;;;;;;;;5068076;27;89131;-63
2024/01/28 09:11:47;;;;;;;13.03;8.93;;;;;;;;;;5064985;27;87819;-63
2024/01/28 09:14:21;;;;;;;15.90;9.00;;;;;;;;;;5060246;27;87563;-63
2024/01/28 09:16:49;;;;;;;14.23;9.00;;;;;;;;;;5061852;27;88501;-63
2024/01/28 09:19:18;;;;;;;20.00;8.77;;;;;;;;;;5059789;27;88077;-64
2024/01/28 09:21:49;;;;;;;17.50;9.33;;;;;;;;;;5061332;27;88999;-64
2024/01/28 09:24:18;;;;;;;18.53;9.50;;;;;;;;;;5058758;27;87334;-63
2024/01/28 09:26:46;;;;;;;18.60;10.17;;;;;;;;;;5060154;27;89604;-64
2024/01/28 09:29:16;;;;;;;13.93;8.37;;;;;;;;;;5057146;27;90114;-63
2024/01/28 09:31:45;;;;;;;16.63;8.50;;;;;;;;;;5061688;27;88636;-64
2024/01/28 09:34:14;;;;;;;23.53;10.33;;;;;;;;;;5062201;27;87715;-63
2024/01/28 09:36:43;;;;;;;23.43;10.73;;;;;;;;;;5061009;27;88495;-64
2024/01/28 09:39:13;;;;;;;16.70;8.07;;;;;;;;;;5060952;27;88089;-63
2024/01/28 09:41:44;;;;;;;19.83;9.60;;;;;;;;;;5061186;27;88819;-63
2024/01/28 09:44:12;;;;;;;14.43;8.77;;;;;;;;;;5061417;27;87691;-63
2024/01/28 09:46:41;;;;;;;16.23;9.70;;;;;;;;;;5061633;27;88223;-64
2024/01/28 09:49:11;;;;;;;13.90;8.73;;;;;;;;;;5061632;27;89141;-63
2024/01/28 09:51:40;;;;;;;15.87;8.50;;;;;;;;;;5059178;27;89345;-64
2024/01/28 09:54:09;;;;;;;15.17;8.40;;;;;;;;;;5060967;27;88082;-64
2024/01/28 09:56:40;;;;;;;15.13;8.63;;;;;;;;;;5058003;27;88621;-64
2024/01/28 09:59:11;;;;;;;12.77;8.40;;;;;;;;;;5060975;27;89015;-64
2024/01/28 10:01:42;;;;;;;16.43;8.93;;;;;;;;;;5060531;27;88837;-62
2024/01/28 10:04:11;;;;;;;12.77;6.30;;;;;;;;;;5061115;27;87572;-64
2024/01/28 10:06:40;;;;;;;14.13;8.77;;;;;;;;;;5061497;27;89723;-64
2024/01/28 10:09:08;;;;;;;12.03;8.10;;;;;;;;;;5061251;27;89153;-64
2024/01/28 10:11:39;;;;;;;12.07;6.57;;;;;;;;;;5061136;27;88863;-63
2024/01/28 10:14:07;;;;;;;11.93;8.77;;;;;;;;;;5061717;27;87789;-64
2024/01/28 10:16:39;;;;;;;16.90;7.67;;;;;;;;;;5061153;27;89663;-64
2024/01/28 10:19:07;;;;;;;21.77;8.47;;;;;;;;;;5060548;27;89938;-64
2024/01/28 10:21:36;;;;;;;14.90;8.13;;;;;;;;;;5060769;27;89795;-64
2024/01/28 10:24:05;;;;;;;13.00;7.63;;;;;;;;;;5061318;27;88039;-64
2024/01/28 10:26:33;;;;;;;12.20;6.77;;;;;;;;;;5060790;27;89636;-64
2024/01/28 10:29:07;;;;;;;9.00;5.80;;;;;;;;;;5061049;27;89139;-64
2024/01/28 10:31:35;;;;;;;9.87;6.47;;;;;;;;;;5061013;27;88893;-64
2024/01/28 10:34:04;;;;;;;10.03;6.10;;;;;;;;;;5066262;27;87591;-64
2024/01/28 10:36:33;;;;;;;13.70;6.03;;;;;;;;;;5068967;27;89786;-62
2024/01/28 10:39:03;;;;;;;11.57;5.70;;;;;;;;;;5070148;27;88056;-63
2024/01/28 10:41:32;;;;;;;11.03;6.67;;;;;;;;;;5069492;27;88850;-64
2024/01/28 10:44:02;;;;;;;10.43;6.23;;;;;;;;;;5067910;27;87978;-64
2024/01/28 10:46:33;;;;;;;7.87;4.83;;;;;;;;;;5067230;27;89544;-65
2024/01/28 10:49:04;;;;;;;10.00;5.67;;;;;;;;;;5067955;27;88782;-65
2024/01/28 10:51:33;;;;;;;14.63;5.80;;;;;;;;;;5068643;27;88820;-63
2024/01/28 10:54:03;;;;;;;9.40;6.47;;;;;;;;;;5068392;27;87638;-63
2024/01/28 10:56:31;;;;;;;10.97;5.63;;;;;;;;;;5064844;27;88482;-63
2024/01/28 10:59:00;;;;;;;10.80;6.03;;;;;;;;;;5066820;27;87880;-63
2024/01/28 11:01:28;;;;;;;9.27;5.00;;;;;;;;;;5068835;27;90994;-63
2024/01/28 11:03:58;;;;;;;11.57;5.43;;;;;;;;;;5066727;27;87498;-64
2024/01/28 11:06:27;;;;;;;7.50;5.13;;;;;;;;;;5066206;27;89789;-62
2024/01/28 11:08:56;;;;;;;6.07;4.63;;;;;;;;;;5063281;27;89193;-63
2024/01/28 11:11:24;;;;;;;7.83;4.77;;;;;;;;;;5066410;27;88790;-62
2024/01/28 11:13:53;;;;;;;11.30;5.80;;;;;;;;;;5062538;27;87501;-63
2024/01/28 11:16:21;;;;;;;7.43;4.97;;;;;;;;;;5067452;27;89548;-63
2024/01/28 11:18:57;;;;;;;10.77;4.37;;;;;;;;;;5065935;27;89181;-63
2024/01/28 11:21:27;;;;;;;8.20;5.07;;;;;;;;;;5064009;27;88793;-63
2024/01/28 11:23:56;;;;;;;7.70;5.17;;;;;;;;;;5066356;27;88227;-63
2024/01/28 11:26:25;;;;;;;8.77;4.53;;;;;;;;;;5060663;27;90076;-62
2024/01/28 11:28:54;;;;;;;6.80;4.70;;;;;;;;;;5067603;27;88994;-62
2024/01/28 11:31:24;;;;;;;9.37;5.30;;;;;;;;;;5064513;27;87810;-62
2024/01/28 11:33:53;;;;;;;10.57;5.00;;;;;;;;;;5057619;27;87930;-63
2024/01/28 11:36:23;;;;;;;13.40;5.30;;;;;;;;;;5065469;27;88171;-62
2024/01/28 11:38:53;;;;;;;9.90;4.93;;;;;;;;;;5068838;27;87481;-62
2024/01/28 11:41:21;;;;;;;9.20;6.10;;;;;;;;;;5064508;27;87530;-62
2024/01/28 11:43:50;;;;;;;10.90;5.93;;;;;;;;;;5067172;27;87659;-63
2024/01/28 11:46:18;;;;;;;10.43;4.37;;;;;;;;;;5068522;27;90558;-62
2024/01/28 11:48:47;;;;;;;8.73;4.03;;;;;;;;;;5065332;27;89196;-63
2024/01/28 11:51:15;;;;;;;7.83;4.40;;;;;;;;;;5066520;27;89262;-63
2024/01/28 11:53:44;;;;;;;9.07;4.77;;;;;;;;;;5061071;27;87638;-63
2024/01/28 11:56:16;;;;;;;10.73;6.03;;;;;;;;;;5066192;27;88556;-62
2024/01/28 11:58:44;;;;;;;8.23;5.30;;;;;;;;;;5062646;27;89852;-63
2024/01/28 12:01:12;;;;;;;7.33;5.03;;;;;;;;;;5067024;27;89616;-62
2024/01/28 12:03:41;;;;;;;9.23;4.90;;;;;;;;;;5067414;27;87756;-63
2024/01/28 12:06:09;;;;;;;15.00;6.10;;;;;;;;;;5066240;27;88766;-63
2024/01/28 12:08:40;;;;;;;10.43;5.70;;;;;;;;;;5063296;27;88154;-62
2024/01/28 12:11:09;;;;;;;10.07;6.43;;;;;;;;;;5063518;27;88570;-63
2024/01/28 12:13:38;;;;;;;12.23;6.60;;;;;;;;;;5065657;27;87662;-63
2024/01/28 12:16:07;;;;;;;17.27;6.87;;;;;;;;;;5065053;27;91255;-63
2024/01/28 12:18:37;;;;;;;14.83;8.13;;;;;;;;;;5069057;27;88973;-63
2024/01/28 12:21:06;;;;;;;12.53;7.30;;;;;;;;;;5067221;27;89087;-63
2024/01/28 12:23:35;;;;;;;16.27;8.20;;;;;;;;;;5070229;27;88133;-64
2024/01/28 12:26:03;;;;;;;14.43;7.43;;;;;;;;;;5065846;27;88520;-63
2024/01/28 12:28:32;;;;;;;12.87;6.87;;;;;;;;;;5066867;27;89216;-64
2024/01/28 12:31:01;;;;;;;13.60;7.50;;;;;;;;;;5065750;27;90615;-63
2024/01/28 12:33:30;;;;;;;12.73;7.37;;;;;;;;;;5065899;27;87996;-63
2024/01/28 12:35:59;;;;;;;12.77;7.77;;;;;;;;;;5068343;27;89614;-63
2024/01/28 12:38:27;;;;;;;9.93;7.03;;;;;;;;;;5066169;27;88365;-63
2024/01/28 12:40:56;;;;;;;12.13;7.33;;;;;;;;;;5068838;27;88683;-63
2024/01/28 12:43:25;;;;;;;10.23;6.13;;;;;;;;;;5064192;27;87670;-64
2024/01/28 12:45:53;;;;;;;9.53;6.80;;;;;;;;;;5067447;27;88182;-63
2024/01/28 12:48:24;;;;;;;13.87;7.43;;;;;;;;;;5069354;27;88927;-63
2024/01/28 12:50:54;;;;;;;7.77;6.57;;;;;;;;;;5069455;27;91774;-63
2024/01/28 12:53:24;;;;;;;11.53;6.80;;;;;;;;;;5068855;27;87590;-64
2024/01/28 12:55:52;;;;;;;9.70;6.63;;;;;;;;;;5068993;27;88482;-64
2024/01/28 12:58:22;;;;;;;9.47;5.90;;;;;;;;;;5072522;27;89072;-63
2024/01/28 13:00:51;;;;;;;13.60;7.50;;;;;;;;;;5064631;27;89742;-64
2024/01/28 13:03:22;;;;;;;8.37;6.17;;;;;;;;;;5067836;27;87621;-63
2024/01/28 13:05:51;;;;;;;8.63;5.03;;;;;;;;;;5069430;27;89739;-64
2024/01/28 13:08:20;;;;;;;8.83;6.23;;;;;;;;;;5067959;27;89253;-63
2024/01/28 13:10:48;;;;;;;9.87;6.17;;;;;;;;;;5071888;27;87407;-64
2024/01/28 13:13:19;;;;;;;7.37;5.40;;;;;;;;;;5080044;27;87985;-64
2024/01/28 13:15:47;;;;;;;11.23;5.13;;;;;;;;;;5080250;27;89741;-64
2024/01/28 13:18:16;;;;;;;8.00;4.37;;;;;;;;;;5065032;27;89361;-63
2024/01/28 13:21:02;;;;;;;9.57;5.67;;;;;;;;;;5043125;27;87666;-64
2024/01/28 13:23:31;;;;;;;7.57;5.50;;;;;;;;;;5054223;27;87497;-64
2024/01/28 13:25:59;;;;;;;8.80;5.57;;;;;;;;;;5059522;27;88669;-64
2024/01/28 13:28:28;;;;;;;11.03;5.60;;;;;;;;;;5057311;27;89081;-64
2024/01/28 13:30:56;;;;;;;9.50;4.80;;;;;;;;;;5059341;27;87927;-64
2024/01/28 13:33:25;;;;;;;8.53;5.13;;;;;;;;;;5057391;27;87678;-63
2024/01/28 13:35:53;;;;;;;8.27;3.93;;;;;;;;;;5052563;27;89424;-63
2024/01/28 13:38:23;;;;;;;10.03;4.40;;;;;;;;;;5047997;27;90298;-63
2024/01/28 13:40:52;;;;;;;6.23;4.10;;;;;;;;;;5046471;27;89898;-64
2024/01/28 13:43:20;;;;;;;6.00;4.30;;;;;;;;;;5058659;27;87638;-63
2024/01/28 13:45:48;;;;;;;6.23;4.10;;;;;;;;;;5058920;27;88535;-63
2024/01/28 13:48:17;;;;;;;7.47;4.50;;;;;;;;;;5058923;27;91757;-63
2024/01/28 13:50:45;;;;;;;6.80;3.50;;;;;;;;;;5058621;27;88642;-63
2024/01/28 13:53:14;;;;;;;5.30;3.10;;;;;;;;;;5053204;27;88122;-63
2024/01/28 13:55:44;;;;;;;5.63;3.27;;;;;;;;;;5055743;27;89767;-63
2024/01/28 13:58:12;;;;;;;6.30;3.67;;;;;;;;;;5053327;27;88070;-63
2024/01/28 14:00:41;;;;;;;7.13;4.07;;;;;;;;;;5054730;27;88679;-64
2024/01/28 14:03:11;;;;;;;4.80;2.93;;;;;;;;;;5056932;27;89530;-63
2024/01/28 14:05:41;;;;;;;3.60;2.60;;;;;;;;;;5050930;27;87534;-63
2024/01/28 14:08:10;;;;;;;4.50;2.90;;;;;;;;;;5056412;27;89223;-63
2024/01/28 14:10:39;;;;;;;3.93;2.53;;;;;;;;;;5052495;27;88564;-63
2024/01/28 14:13:09;;;;;;;4.07;2.10;;;;;;;;;;5058290;27;88004;-64
2024/01/28 14:15:38;;;;;;;3.77;2.37;;;;;;;;;;5058015;27;92345;-63
2024/01/28 14:18:07;;;;;;;3.20;2.40;;;;;;;;;;5052543;27;88262;-63
2024/01/28 14:20:35;;;;;;;2.30;2.03;;;;;;;;;;5057024;27;88960;-64
2024/01/28 14:23:04;;;;;;;2.87;1.97;;;;;;;;;;5059540;27;87772;-67
2024/01/28 14:25:32;;;;;;;6.00;2.83;;;;;;;;;;5050409;27;92181;-65
2024/01/28 14:28:02;;;;;;;4.67;2.60;;;;;;;;;;5049378;27;90030;-60
2024/01/28 14:30:33;;;;;;;5.30;2.53;;;;;;;;;;5039722;27;89749;-61
2024/01/28 14:33:01;;;;;;;5.47;2.63;;;;;;;;;;5038112;28;87556;-60
2024/01/28 14:35:30;;;;;;;2.83;2.07;;;;;;;;;;5037505;27;92340;-61
2024/01/28 14:38:00;;;;;;;3.37;1.93;;;;;;;;;;5037053;27;87935;-61
2024/01/28 14:40:29;;;;;;;4.80;2.37;;;;;;;;;;5037917;27;87770;-61
2024/01/28 14:42:56;;;;;;;5.10;2.37;;;;;;;;;;5044826;27;87796;-61
2024/01/28 14:45:25;;;;;;;4.17;2.50;;;;;;;;;;5057328;27;89488;-60
2024/01/28 14:47:56;;;;;;;4.27;2.00;;;;;;;;;;5056792;27;88929;-61